Time;durP1;ratioP1;P1;durP2;ratioP2;P2;SDS_P1;SDS_P2;PMS_P1;PMS_P2;Temp;Humidity;BMP_temperature;BMP_pressure;BME280_temperature;BME280_humidity;BME280_pressure;Samples;Min_cycle;Max_cycle;Signal;HPM_P1;HPM_P2
2021/09/18 00:02:20;;;;;;;10.55;6.13;;;;;;;-149.78;100.00;50270.00;4811097;29;20080;-62
2021/09/18 00:04:46;;;;;;;13.52;7.07;;;;;;;-149.78;100.00;50314.97;4810383;29;20122;-62
2021/09/18 00:07:11;;;;;;;13.38;6.85;;;;;;;-149.78;100.00;50264.13;4809697;29;20051;-62
2021/09/18 00:09:37;;;;;;;12.02;7.10;;;;;;;-149.78;100.00;50295.44;4813286;29;20057;-62
2021/09/18 00:12:03;;;;;;;11.23;6.75;;;;;;;-149.78;100.00;50283.69;4809897;29;20049;-62
2021/09/18 00:14:29;;;;;;;13.02;6.80;;;;;;;-149.78;100.00;50275.88;4807838;29;20199;-62
2021/09/18 00:16:54;;;;;;;12.38;6.63;;;;;;;-149.78;100.00;50277.81;4813302;29;20041;-62
2021/09/18 00:19:20;;;;;;;12.10;7.03;;;;;;;-149.78;100.00;50283.69;4817457;29;20118;-62
2021/09/18 00:21:46;;;;;;;13.45;7.55;;;;;;;-149.78;100.00;50285.66;4811914;29;20038;-62
2021/09/18 00:24:11;;;;;;;11.85;6.72;;;;;;;-149.78;100.00;50303.25;4820383;29;20042;-62
2021/09/18 00:26:37;;;;;;;15.32;7.68;;;;;;;-149.78;100.00;50264.13;4818335;29;20486;-62
2021/09/18 00:29:04;;;;;;;12.75;7.50;;;;;;;-149.78;100.00;50256.31;4817119;29;20053;-62
2021/09/18 00:31:30;;;;;;;17.25;7.40;;;;;;;-149.78;100.00;50307.16;4823692;29;20491;-63
2021/09/18 00:33:55;;;;;;;13.02;8.30;;;;;;;-149.78;100.00;50277.81;4819985;29;20035;-62
2021/09/18 00:36:21;;;;;;;10.93;7.07;;;;;;;-149.78;100.00;50271.97;4810142;29;20034;-62
2021/09/18 00:38:47;;;;;;;14.40;7.25;;;;;;;-149.78;100.00;50279.78;4810432;29;20046;-62
2021/09/18 00:41:13;;;;;;;11.50;6.82;;;;;;;-149.78;100.00;50307.16;4800027;29;20070;-62
2021/09/18 00:43:39;;;;;;;13.77;7.15;;;;;;;-149.78;100.00;50322.81;4809699;29;20041;-62
2021/09/18 00:46:04;;;;;;;12.38;7.68;;;;;;;-149.78;100.00;50279.78;4811783;29;20396;-62
2021/09/18 00:48:32;;;;;;;14.30;7.90;;;;;;;-149.78;100.00;50289.56;4806503;29;20043;-62
2021/09/18 00:50:58;;;;;;;16.00;7.82;;;;;;;-149.78;100.00;50293.47;4807916;29;20146;-62
2021/09/18 00:53:24;;;;;;;12.50;7.43;;;;;;;-149.78;100.00;50266.09;4805618;29;20510;-62
2021/09/18 00:55:49;;;;;;;17.15;8.65;;;;;;;-149.78;100.00;50287.59;4795992;29;20043;-62
2021/09/18 00:58:16;;;;;;;20.42;9.18;;;;;;;-149.78;100.00;50275.88;4808698;29;20479;-62
2021/09/18 01:00:42;;;;;;;17.65;9.00;;;;;;;-149.78;100.00;50279.78;4807794;29;20038;-62
2021/09/18 01:03:08;;;;;;;14.15;9.05;;;;;;;-149.78;100.00;50268.03;4804553;29;20491;-62
2021/09/18 01:05:35;;;;;;;23.25;8.98;;;;;;;-149.78;100.00;50305.22;4804324;29;20045;-62
2021/09/18 01:08:02;;;;;;;16.80;8.95;;;;;;;-149.78;100.00;50268.03;4805169;29;20043;-62
2021/09/18 01:10:28;;;;;;;16.33;9.77;;;;;;;-149.78;100.00;50287.59;4807068;29;20030;-62
2021/09/18 01:13:02;;;;;;;19.73;10.15;;;;;;;-149.78;100.00;50332.59;4805411;29;20041;-62
2021/09/18 01:15:29;;;;;;;17.77;9.63;;;;;;;-149.78;100.00;50275.88;4806518;29;20042;-62
2021/09/18 01:17:56;;;;;;;19.40;10.02;;;;;;;-149.78;100.00;50313.03;4805351;29;20050;-62
2021/09/18 01:20:23;;;;;;;17.60;9.70;;;;;;;-149.78;100.00;50252.41;4805343;29;20880;-62
2021/09/18 01:22:51;;;;;;;20.25;9.35;;;;;;;-149.78;100.00;50256.31;4815265;29;20046;-62
2021/09/18 01:25:17;;;;;;;17.73;9.95;;;;;;;-149.78;100.00;50283.69;4815935;29;20041;-62
2021/09/18 01:27:44;;;;;;;19.23;11.20;;;;;;;-149.78;100.00;50254.34;4823362;29;20099;-62
2021/09/18 01:30:16;;;;;;;22.50;11.75;;;;;;;-149.78;100.00;50252.41;4816179;29;20486;-61
2021/09/18 01:32:42;;;;;;;;;;;;;;;-149.78;100.00;50283.69;4818483;29;20043;-62
2021/09/18 01:35:08;;;;;;;23.63;11.57;;;;;;;-149.78;100.00;50271.97;4790781;29;19944;-62
2021/09/18 01:37:36;;;;;;;22.10;12.25;;;;;;;-149.78;100.00;50256.31;4806643;29;20042;-62
2021/09/18 01:40:03;;;;;;;20.02;11.57;;;;;;;-149.78;100.00;50320.84;4820410;29;20054;-62
2021/09/18 01:42:31;;;;;;;21.88;11.88;;;;;;;-149.78;100.00;50285.66;4807095;29;20043;-62
2021/09/18 01:44:56;;;;;;;22.60;12.45;;;;;;;-149.78;100.00;50277.81;4806526;29;20541;-62
2021/09/18 01:47:22;;;;;;;23.85;12.38;;;;;;;-149.78;100.00;50301.28;4805784;29;20406;-62
2021/09/18 01:49:47;;;;;;;20.85;11.48;;;;;;;-149.78;100.00;50260.22;4816280;29;20425;-62
2021/09/18 01:52:32;;;;;;;19.13;11.02;;;;;;;-149.78;100.00;50295.44;4814041;29;20134;-62
2021/09/18 01:54:58;;;;;;;23.38;11.50;;;;;;;-149.78;100.00;50295.44;4817736;29;20471;-62
2021/09/18 01:57:23;;;;;;;22.85;11.68;;;;;;;-149.78;100.00;50289.56;4821401;29;20111;-62
2021/09/18 01:59:49;;;;;;;22.10;11.30;;;;;;;-149.78;100.00;50260.22;4825591;29;20179;-62
2021/09/18 02:02:14;;;;;;;22.40;11.38;;;;;;;-149.78;100.00;50268.03;4826189;29;20051;-62
2021/09/18 02:04:40;;;;;;;20.70;11.18;;;;;;;-149.78;100.00;50256.31;4825572;29;20042;-62
2021/09/18 02:07:06;;;;;;;21.10;11.57;;;;;;;-149.78;100.00;50254.34;4826175;29;20050;-62
2021/09/18 02:09:32;;;;;;;22.08;12.65;;;;;;;-149.78;100.00;50275.88;4824999;29;20155;-62
2021/09/18 02:11:58;;;;;;;19.83;12.00;;;;;;;-149.78;100.00;50271.97;4826507;29;20121;-62
2021/09/18 02:14:23;;;;;;;22.90;13.10;;;;;;;-149.78;100.00;50279.78;4824610;29;20167;-62
2021/09/18 02:16:48;;;;;;;21.10;12.00;;;;;;;-149.78;100.00;50268.03;4820790;29;20475;-62
2021/09/18 02:19:14;;;;;;;24.30;11.90;;;;;;;-149.78;100.00;50307.16;4817114;29;20046;-62
2021/09/18 02:21:39;;;;;;;24.73;13.38;;;;;;;-149.78;100.00;50303.25;4817437;29;20047;-61
2021/09/18 02:24:05;;;;;;;23.10;12.50;;;;;;;-149.78;100.00;50283.69;4821603;29;20041;-62
2021/09/18 02:26:31;;;;;;;20.38;11.75;;;;;;;-149.78;100.00;50283.69;4817886;29;20125;-62
2021/09/18 02:28:57;;;;;;;23.63;11.68;;;;;;;-149.78;100.00;50264.13;4817625;29;20056;-62
2021/09/18 02:31:22;;;;;;;26.35;12.15;;;;;;;-149.78;100.00;50289.56;4824862;29;20475;-62
2021/09/18 02:33:48;;;;;;;23.50;12.27;;;;;;;-149.78;100.00;50277.81;4816378;29;20038;-62
2021/09/18 02:36:14;;;;;;;22.67;11.95;;;;;;;-149.78;100.00;50287.59;4824180;29;20051;-62
2021/09/18 02:38:39;;;;;;;23.15;12.30;;;;;;;-149.78;100.00;50279.78;4820924;29;20042;-62
2021/09/18 02:41:05;;;;;;;21.02;10.75;;;;;;;-149.78;100.00;50303.25;4823057;29;20038;-62
2021/09/18 02:43:30;;;;;;;23.45;13.00;;;;;;;-149.78;100.00;50311.06;4822175;29;21234;-62
2021/09/18 02:45:56;;;;;;;19.73;11.18;;;;;;;-149.78;100.00;50291.50;4822861;29;20038;-62
2021/09/18 02:48:22;;;;;;;17.70;9.95;;;;;;;-149.78;100.00;50256.31;4821964;29;20061;-62
2021/09/18 02:50:49;;;;;;;20.40;10.82;;;;;;;-149.78;100.00;50299.34;4810417;29;20046;-62
2021/09/18 02:53:15;;;;;;;18.17;9.45;;;;;;;-149.78;100.00;50275.88;4823805;29;20042;-62
2021/09/18 02:55:41;;;;;;;21.70;11.10;;;;;;;-149.78;100.00;50279.78;4818316;29;20035;-62
2021/09/18 02:58:06;;;;;;;21.33;10.30;;;;;;;-149.78;100.00;50299.34;4821915;29;20371;-62
2021/09/18 03:00:32;;;;;;;20.88;11.60;;;;;;;-149.78;100.00;50332.59;4819048;29;20061;-62
2021/09/18 03:02:58;;;;;;;20.83;10.65;;;;;;;-149.78;100.00;50299.34;4820302;29;20046;-62
2021/09/18 03:05:24;;;;;;;18.55;10.23;;;;;;;-149.78;100.00;50295.44;4822304;29;20095;-62
2021/09/18 03:07:50;;;;;;;22.90;11.73;;;;;;;-149.78;100.00;50295.44;4819922;29;20042;-62
2021/09/18 03:10:15;;;;;;;24.10;12.00;;;;;;;-149.78;100.00;50299.34;4815560;29;20062;-62
2021/09/18 03:12:41;;;;;;;21.80;11.80;;;;;;;-149.78;100.00;50266.09;4818225;29;20113;-62
2021/09/18 03:15:08;;;;;;;22.27;11.55;;;;;;;-149.78;100.00;50330.63;4816212;29;20047;-62
2021/09/18 03:17:33;;;;;;;24.35;11.70;;;;;;;-149.78;100.00;50270.00;4817489;29;20398;-62
2021/09/18 03:19:59;;;;;;;24.48;12.40;;;;;;;-149.78;100.00;50299.34;4821212;29;20137;-62
2021/09/18 03:22:27;;;;;;;25.08;12.65;;;;;;;-149.78;100.00;50291.50;4822264;29;20111;-62
2021/09/18 03:24:52;;;;;;;24.33;12.35;;;;;;;-149.78;100.00;50275.88;4820449;29;20046;-62
2021/09/18 03:27:18;;;;;;;25.65;12.30;;;;;;;-149.78;100.00;50262.19;4808780;29;20062;-62
2021/09/18 03:29:43;;;;;;;23.13;12.15;;;;;;;-149.78;100.00;50326.72;4819126;29;20043;-62
2021/09/18 03:32:10;;;;;;;20.95;11.70;;;;;;;-149.78;100.00;50260.22;4819202;29;20050;-62
2021/09/18 03:34:36;;;;;;;23.60;12.50;;;;;;;-149.78;100.00;50256.31;4822398;29;20147;-62
2021/09/18 03:37:02;;;;;;;26.00;12.43;;;;;;;-149.78;100.00;50283.69;4818974;29;20038;-62
2021/09/18 03:39:28;;;;;;;25.05;13.23;;;;;;;-149.78;100.00;50291.50;4823880;29;20347;-62
2021/09/18 03:41:54;;;;;;;25.95;12.98;;;;;;;-149.78;100.00;50299.34;4821492;29;20053;-62
2021/09/18 03:44:19;;;;;;;23.75;12.38;;;;;;;-149.78;100.00;50268.03;4819954;29;20512;-62
2021/09/18 03:46:45;;;;;;;27.33;13.32;;;;;;;-149.78;100.00;50301.28;4816262;29;20087;-62
2021/09/18 03:49:10;;;;;;;25.05;12.88;;;;;;;-149.78;100.00;50287.59;4806183;29;20090;-62
2021/09/18 03:51:36;;;;;;;23.92;12.95;;;;;;;-149.78;100.00;50260.22;4818870;29;20046;-62
2021/09/18 03:54:01;;;;;;;23.88;14.07;;;;;;;-149.78;100.00;50301.28;4820621;29;20121;-62
2021/09/18 03:56:27;;;;;;;28.17;13.75;;;;;;;-149.78;100.00;50268.03;4820887;29;20057;-62
2021/09/18 03:58:52;;;;;;;25.73;13.45;;;;;;;-149.78;100.00;50283.69;4818918;29;20069;-62
2021/09/18 04:01:18;;;;;;;23.08;13.20;;;;;;;-149.78;100.00;50305.22;4817411;29;20121;-61
2021/09/18 04:03:44;;;;;;;27.92;14.40;;;;;;;-149.78;100.00;50291.50;4820653;29;20048;-62
2021/09/18 04:06:09;;;;;;;28.20;14.68;;;;;;;-149.78;100.00;50293.47;4809542;29;20042;-62
2021/09/18 04:08:35;;;;;;;27.15;14.50;;;;;;;-149.78;100.00;50303.25;4809350;29;20046;-62
2021/09/18 04:11:00;;;;;;;28.80;14.25;;;;;;;-149.78;100.00;50305.22;4810186;29;20086;-62
2021/09/18 04:13:26;;;;;;;24.25;14.18;;;;;;;-149.78;100.00;50301.28;4812063;29;20051;-62
2021/09/18 04:15:51;;;;;;;25.55;14.40;;;;;;;-149.78;100.00;50252.41;4807639;29;20031;-62
2021/09/18 04:18:17;;;;;;;30.50;14.82;;;;;;;-149.78;100.00;50281.75;4808624;29;20035;-62
2021/09/18 04:20:43;;;;;;;28.73;13.88;;;;;;;-149.78;100.00;50307.16;4808765;29;20419;-62
2021/09/18 04:23:09;;;;;;;31.40;15.70;;;;;;;-149.78;100.00;50346.28;4805213;29;20091;-62
2021/09/18 04:25:34;;;;;;;28.80;14.93;;;;;;;-149.78;100.00;50299.34;4804256;29;20051;-62
2021/09/18 04:28:00;;;;;;;27.80;14.43;;;;;;;-149.78;100.00;50291.50;4814285;29;20039;-62
2021/09/18 04:30:25;;;;;;;26.50;13.48;;;;;;;-149.78;100.00;50262.19;4817047;29;20046;-62
2021/09/18 04:32:51;;;;;;;25.40;13.55;;;;;;;-149.78;100.00;50281.75;4815852;29;20035;-62
2021/09/18 04:35:18;;;;;;;22.95;12.70;;;;;;;-149.78;100.00;50291.50;4816126;29;20127;-62
2021/09/18 04:37:43;;;;;;;25.88;13.05;;;;;;;-149.78;100.00;50314.97;4806195;29;20085;-62
2021/09/18 04:40:09;;;;;;;26.92;12.75;;;;;;;-149.78;100.00;50303.25;4817850;29;20038;-62
2021/09/18 04:42:35;;;;;;;22.20;12.50;;;;;;;-149.78;100.00;50271.97;4817337;29;20099;-62
2021/09/18 04:45:01;;;;;;;24.40;12.80;;;;;;;-149.78;100.00;50268.03;4814440;29;20050;-62
2021/09/18 04:47:27;;;;;;;25.80;12.93;;;;;;;-149.78;100.00;50314.97;4811066;29;20511;-62
2021/09/18 04:49:52;;;;;;;25.02;13.20;;;;;;;-149.78;100.00;50346.28;4812422;29;20050;-62
2021/09/18 04:52:18;;;;;;;26.80;13.10;;;;;;;-149.78;100.00;50299.34;4815747;29;20360;-62
2021/09/18 04:54:43;;;;;;;25.45;12.77;;;;;;;-149.78;100.00;50285.66;4813880;29;20487;-62
2021/09/18 04:57:09;;;;;;;27.77;13.95;;;;;;;-149.78;100.00;50332.59;4813016;29;20042;-62
2021/09/18 04:59:35;;;;;;;28.33;14.05;;;;;;;-149.78;100.00;50350.19;4809225;29;20559;-62
2021/09/18 05:02:00;;;;;;;29.13;14.50;;;;;;;-149.78;100.00;50277.81;4817727;29;20051;-62
2021/09/18 05:04:26;;;;;;;26.90;14.50;;;;;;;-149.78;100.00;50256.31;4811380;29;20092;-62
2021/09/18 05:06:51;;;;;;;30.17;13.73;;;;;;;-149.78;100.00;50322.81;4811793;29;20058;-62
2021/09/18 05:09:17;;;;;;;25.00;12.68;;;;;;;-149.78;100.00;50287.59;4790073;29;20039;-62
2021/09/18 05:11:43;;;;;;;26.65;13.57;;;;;;;-149.78;100.00;50307.16;4816406;29;20055;-62
2021/09/18 05:14:09;;;;;;;23.00;12.50;;;;;;;-149.78;100.00;50311.06;4813922;29;20091;-62
2021/09/18 05:16:34;;;;;;;23.58;12.85;;;;;;;-149.78;100.00;50303.25;4810137;29;21224;-62
2021/09/18 05:19:00;;;;;;;29.60;13.00;;;;;;;-149.78;100.00;50301.28;4817731;29;20149;-61
2021/09/18 05:21:26;;;;;;;26.30;12.80;;;;;;;-149.78;100.00;50326.72;4812463;29;20059;-62
2021/09/18 05:23:52;;;;;;;24.27;11.95;;;;;;;-149.78;100.00;50326.72;4815610;29;20042;-62
2021/09/18 05:26:18;;;;;;;24.17;11.75;;;;;;;-149.78;100.00;50326.72;4816369;29;20179;-63
2021/09/18 05:28:43;;;;;;;22.38;11.73;;;;;;;-149.78;100.00;50291.50;4816840;29;20080;-62
2021/09/18 05:31:09;;;;;;;25.90;12.60;;;;;;;-149.78;100.00;50303.25;4814478;29;20043;-63
2021/09/18 05:33:35;;;;;;;23.95;12.38;;;;;;;-149.78;100.00;50295.44;4817040;29;20035;-62
2021/09/18 05:36:01;;;;;;;23.25;11.23;;;;;;;-149.78;100.00;50283.69;4822418;29;20505;-62
2021/09/18 05:38:27;;;;;;;21.90;11.10;;;;;;;-149.78;100.00;50291.50;4817579;29;20042;-62
2021/09/18 05:40:52;;;;;;;23.75;11.82;;;;;;;-149.78;100.00;50252.41;4813885;29;20121;-62
2021/09/18 05:43:18;;;;;;;22.83;12.48;;;;;;;-149.78;100.00;50301.28;4819385;29;20126;-62
2021/09/18 05:45:44;;;;;;;23.63;12.85;;;;;;;-149.78;100.00;50314.97;4817472;29;20117;-62
2021/09/18 05:48:10;;;;;;;22.10;12.07;;;;;;;-149.78;100.00;50301.28;4818823;29;20054;-62
2021/09/18 05:50:35;;;;;;;25.42;11.32;;;;;;;-149.78;100.00;50299.34;4817275;29;20038;-62
2021/09/18 05:53:01;;;;;;;26.48;13.13;;;;;;;-149.78;100.00;50297.38;4818543;29;20026;-62
2021/09/18 05:55:27;;;;;;;23.15;11.93;;;;;;;-149.78;100.00;50283.69;4814774;29;20038;-62
2021/09/18 05:57:53;;;;;;;24.40;11.82;;;;;;;-149.78;100.00;50311.06;4820751;29;20054;-62
2021/09/18 06:00:19;;;;;;;25.48;13.05;;;;;;;-149.78;100.00;50285.66;4821869;29;20030;-62
2021/09/18 06:02:45;;;;;;;26.20;12.82;;;;;;;-149.78;100.00;50260.22;4808377;29;20115;-63
2021/09/18 06:05:11;;;;;;;28.10;13.70;;;;;;;-149.78;100.00;50291.50;4822988;29;20062;-62
2021/09/18 06:07:37;;;;;;;23.60;12.18;;;;;;;-149.78;100.00;50318.91;4819568;29;20049;-62
2021/09/18 06:10:03;;;;;;;28.23;14.05;;;;;;;-149.78;100.00;50326.72;4807621;29;20042;-62
2021/09/18 06:12:29;;;;;;;26.83;13.82;;;;;;;-149.78;100.00;50303.25;4822570;29;20068;-62
2021/09/18 06:14:54;;;;;;;29.98;14.00;;;;;;;-149.78;100.00;50283.69;4822588;29;20038;-62
2021/09/18 06:17:20;;;;;;;27.00;12.65;;;;;;;-149.78;100.00;50303.25;4823333;29;20051;-62
2021/09/18 06:19:46;;;;;;;32.65;14.02;;;;;;;-149.78;100.00;50311.06;4820261;29;20542;-62
2021/09/18 06:22:12;;;;;;;23.75;12.85;;;;;;;-149.78;100.00;50301.28;4821688;29;20076;-62
2021/09/18 06:24:39;;;;;;;28.75;13.82;;;;;;;-149.78;100.00;50271.97;4821908;29;20041;-62
2021/09/18 06:27:05;;;;;;;27.95;13.68;;;;;;;-149.78;100.00;50314.97;4822547;29;20035;-62
2021/09/18 06:29:30;;;;;;;31.77;14.20;;;;;;;-149.78;100.00;50299.34;4823752;29;20031;-62
2021/09/18 06:31:56;;;;;;;26.33;13.80;;;;;;;-149.78;100.00;50273.91;4807364;29;20054;-62
2021/09/18 06:34:22;;;;;;;26.17;13.68;;;;;;;-149.78;100.00;50287.59;4820825;29;20053;-61
2021/09/18 06:36:49;;;;;;;27.20;14.27;;;;;;;-149.78;100.00;50301.28;4822022;29;20042;-62
2021/09/18 06:39:14;;;;;;;25.15;12.43;;;;;;;-149.78;100.00;50275.88;4822447;29;20047;-62
2021/09/18 06:41:41;;;;;;;23.52;13.00;;;;;;;-149.78;100.00;50268.03;4821461;29;20035;-62
2021/09/18 06:44:06;;;;;;;27.02;12.82;;;;;;;-149.78;100.00;50271.97;4821296;29;20042;-62
2021/09/18 06:46:32;;;;;;;19.35;10.95;;;;;;;-149.78;100.00;50273.91;4822416;29;20131;-62
2021/09/18 06:48:58;;;;;;;19.63;10.93;;;;;;;-149.78;100.00;50262.19;4821833;29;20145;-62
2021/09/18 06:51:24;;;;;;;22.10;11.23;;;;;;;-149.78;100.00;50271.97;4819885;29;20546;-62
2021/09/18 06:53:50;;;;;;;21.90;11.38;;;;;;;-149.78;100.00;50260.22;4821975;29;20041;-63
2021/09/18 06:56:15;;;;;;;24.00;12.07;;;;;;;-149.78;100.00;50221.13;4820768;29;20057;-62
2021/09/18 06:58:41;;;;;;;19.33;11.23;;;;;;;-149.78;100.00;50248.50;4822188;29;20042;-62
2021/09/18 07:01:07;;;;;;;20.80;11.60;;;;;;;-149.78;100.00;50248.50;4819787;29;20049;-62
2021/09/18 07:03:33;;;;;;;18.17;10.73;;;;;;;-149.78;100.00;50260.22;4802165;29;20425;-62
2021/09/18 07:06:00;;;;;;;21.63;10.95;;;;;;;-149.78;100.00;50240.66;4820206;29;20034;-63
2021/09/18 07:08:26;;;;;;;17.58;9.88;;;;;;;-149.78;100.00;50271.97;4822511;29;20038;-63
2021/09/18 07:10:52;;;;;;;20.33;11.57;;;;;;;-149.78;100.00;50283.69;4820100;29;20539;-64
2021/09/18 07:13:18;;;;;;;18.92;10.35;;;;;;;-149.78;100.00;50275.88;4821124;29;20095;-63
2021/09/18 07:15:44;;;;;;;20.95;11.07;;;;;;;-149.78;100.00;50271.97;4821173;29;20121;-61
2021/09/18 07:18:10;;;;;;;21.90;11.60;;;;;;;-149.78;100.00;50232.84;4821815;29;20041;-62
2021/09/18 07:20:36;;;;;;;21.42;11.65;;;;;;;-149.78;100.00;50260.22;4823471;29;20518;-64
2021/09/18 07:23:01;;;;;;;25.83;12.27;;;;;;;-149.78;100.00;50236.75;4823289;29;20501;-61
2021/09/18 07:25:27;;;;;;;18.20;10.73;;;;;;;-149.78;100.00;50189.81;4824055;29;20049;-63
2021/09/18 07:27:54;;;;;;;20.20;10.02;;;;;;;-149.78;100.00;50166.34;4822728;29;20081;-64
2021/09/18 07:30:20;;;;;;;17.55;9.50;;;;;;;-149.78;100.00;50140.94;4819843;29;20118;-65
2021/09/18 07:32:46;;;;;;;16.17;10.38;;;;;;;-149.78;100.00;50095.94;4823464;29;20445;-66
2021/09/18 07:35:12;;;;;;;14.57;8.43;;;;;;;-149.78;100.00;50060.75;4822164;29;20082;-63
2021/09/18 07:37:38;;;;;;;13.23;7.40;;;;;;;-149.78;75.47;50025.56;4821764;29;20062;-65
2021/09/18 07:40:10;;;;;;;13.68;8.18;;;;;;;-149.78;65.04;50006.00;4818173;29;20046;-65
2021/09/18 07:42:36;;;;;;;14.18;8.45;;;;;;;-149.78;63.09;49984.50;4822387;29;20034;-62
2021/09/18 07:45:04;;;;;;;14.32;7.53;;;;;;;-149.78;62.03;49990.34;4819911;29;20053;-62
2021/09/18 07:47:30;;;;;;;14.35;7.63;;;;;;;-149.78;60.60;49982.53;4821799;29;20038;-62
2021/09/18 07:49:55;;;;;;;11.88;7.20;;;;;;;-149.78;59.09;49996.22;4820726;29;20483;-61
2021/09/18 07:52:21;;;;;;;10.95;7.75;;;;;;;-149.78;58.56;49982.53;4820817;29;20026;-60
2021/09/18 07:54:48;;;;;;;10.52;7.60;;;;;;;-149.78;57.68;49994.25;4820181;29;20042;-60
2021/09/18 07:57:13;;;;;;;11.60;7.68;;;;;;;-149.78;57.03;49990.34;4823176;29;20094;-61
2021/09/18 07:59:39;;;;;;;11.55;6.85;;;;;;;-149.78;55.42;49939.50;4823533;29;20066;-62
2021/09/18 08:02:05;;;;;;;8.52;6.43;;;;;;;-149.78;52.89;49931.69;4820925;29;20031;-63
2021/09/18 08:04:31;;;;;;;10.82;6.72;;;;;;;-149.78;51.63;49888.66;4821610;29;20053;-66
2021/09/18 08:06:57;;;;;;;10.38;6.43;;;;;;;-149.78;51.64;49964.94;4818437;29;20076;-61
2021/09/18 08:09:22;;;;;;;9.07;6.38;;;;;;;-149.78;51.12;49896.50;4821738;29;20507;-62
2021/09/18 08:11:50;;;;;;;9.00;6.65;;;;;;;-149.78;48.60;49888.66;4821521;29;20137;-62
2021/09/18 08:14:15;;;;;;;9.90;7.03;;;;;;;-149.78;50.13;49919.94;4813571;29;20033;-63
2021/09/18 08:16:41;;;;;;;12.70;7.40;;;;;;;-149.78;50.27;49912.13;4822545;29;20046;-63
2021/09/18 08:19:07;;;;;;;10.32;6.80;;;;;;;-149.78;49.99;49884.75;4818390;29;20061;-62
2021/09/18 08:21:32;;;;;;;11.85;7.80;;;;;;;-149.78;48.52;49880.84;4822337;29;20141;-62
2021/09/18 08:23:59;;;;;;;9.55;6.85;;;;;;;-149.78;48.12;49845.66;4821540;29;20046;-62
2021/09/18 08:26:29;;;;;;;12.15;7.45;;;;;;;-149.78;47.06;49861.28;4821549;29;20554;-62
2021/09/18 08:31:39;;;;;;;12.60;8.52;;;;;;;-149.78;46.89;49837.81;4818176;24;20481;-59
2021/09/18 08:34:05;;;;;;;11.18;7.57;;;;;;;-149.78;48.47;49892.56;4828393;29;20120;-58
2021/09/18 08:36:30;;;;;;;12.00;7.80;;;;;;;-149.78;48.24;49906.25;4828071;29;20547;-58
2021/09/18 08:38:56;;;;;;;10.77;7.10;;;;;;;-149.78;50.77;49935.59;4832989;29;20121;-58
2021/09/18 08:41:22;;;;;;;11.60;8.32;;;;;;;-149.78;55.84;49994.25;4841866;29;20042;-57
2021/09/18 08:43:48;;;;;;;13.02;8.23;;;;;;;-149.78;58.80;49990.34;4836966;29;20378;-57
2021/09/18 08:46:16;;;;;;;12.43;8.73;;;;;;;-149.78;64.49;50084.22;4837565;29;20042;-59
2021/09/18 08:48:44;;;;;;;12.93;9.05;;;;;;;-149.78;64.59;50025.56;4840202;29;20462;-59
2021/09/18 08:51:10;;;;;;;14.32;9.25;;;;;;;-149.78;61.80;50002.09;4835293;29;20034;-60
2021/09/18 08:53:37;;;;;;;16.13;9.95;;;;;;;-149.78;56.18;49990.34;4837008;29;20046;-61
2021/09/18 08:56:03;;;;;;;17.40;10.07;;;;;;;-149.78;57.67;49962.97;4839294;29;20034;-61
2021/09/18 08:58:29;;;;;;;15.25;9.57;;;;;;;-149.78;56.09;49955.16;4840345;29;20084;-61
2021/09/18 09:00:57;;;;;;;15.25;10.10;;;;;;;-149.78;55.42;49904.31;4841607;29;20082;-61
2021/09/18 09:03:32;;;;;;;15.52;10.20;;;;;;;-149.78;55.46;49962.97;4840455;29;20042;-62
2021/09/18 09:06:08;;;;;;;14.75;10.05;;;;;;;-149.78;52.21;49880.84;4843068;29;20079;-59
2021/09/18 09:08:36;;;;;;;15.25;9.50;;;;;;;-149.78;49.70;49876.94;4838149;29;20045;-63
2021/09/18 09:11:20;;;;;;;15.48;9.48;;;;;;;-149.78;49.64;49904.31;4840044;29;20061;-60
2021/09/18 09:13:57;;;;;;;13.73;9.82;;;;;;;-149.78;48.85;49814.34;4839969;29;20037;-60
2021/09/18 09:16:23;;;;;;;16.25;10.70;;;;;;;-149.78;49.27;49888.66;4836195;29;20034;-59
2021/09/18 09:18:48;;;;;;;16.88;10.68;;;;;;;-149.78;48.73;49884.75;4822115;29;20095;-59
2021/09/18 09:21:25;;;;;;;17.50;9.93;;;;;;;-149.78;48.70;49884.75;4834485;29;20041;-59
2021/09/18 09:24:15;;;;;;;15.70;10.25;;;;;;;-149.78;46.98;49841.72;4835729;29;20373;-60
2021/09/18 09:26:45;;;;;;;18.98;10.65;;;;;;;-149.78;46.83;49847.59;4839253;29;20042;-59
2021/09/18 09:29:10;;;;;;;18.73;11.68;;;;;;;-149.78;46.92;49849.56;4842426;29;20065;-60
2021/09/18 09:31:39;;;;;;;17.60;11.40;;;;;;;-149.78;46.91;49857.38;4849294;29;20084;-64
2021/09/18 09:34:18;;;;;;;17.15;11.30;;;;;;;-149.78;48.04;49927.78;4851939;29;20029;-59
2021/09/18 09:36:47;;;;;;;17.25;10.00;;;;;;;-149.78;49.79;49908.22;4849406;29;20306;-59
2021/09/18 09:39:15;;;;;;;15.75;10.65;;;;;;;-149.78;54.24;49957.09;4854601;29;20033;-59
2021/09/18 09:41:46;;;;;;;17.73;10.45;;;;;;;-149.78;58.45;50009.91;4836863;29;20045;-61
2021/09/18 09:44:16;;;;;;;16.92;10.13;;;;;;;-149.78;62.26;50045.09;4851795;29;20508;-61
2021/09/18 09:46:42;;;;;;;18.35;11.20;;;;;;;-149.78;66.05;50023.59;4853936;29;20474;-61
2021/09/18 09:49:12;;;;;;;19.33;11.85;;;;;;;-149.78;63.53;50006.00;4852331;29;20049;-61
2021/09/18 09:51:39;;;;;;;18.52;11.30;;;;;;;-149.78;64.29;50025.56;4852108;29;20102;-60
2021/09/18 09:54:20;;;;;;;21.48;11.65;;;;;;;-149.78;63.16;50021.63;4856301;29;20370;-61
2021/09/18 09:57:03;;;;;;;22.25;11.82;;;;;;;-149.78;64.41;50006.00;4855708;29;20041;-60
2021/09/18 09:59:29;;;;;;;21.90;13.65;;;;;;;-149.78;65.80;50033.38;4855773;29;20056;-60
2021/09/18 10:01:56;;;;;;;22.60;12.27;;;;;;;-149.78;68.19;50064.66;4857755;29;20033;-60
2021/09/18 10:04:21;;;;;;;19.40;12.02;;;;;;;-149.78;69.39;50054.88;4811232;29;20074;-61
2021/09/18 10:06:49;;;;;;;24.33;13.10;;;;;;;-149.78;70.23;50072.50;4836162;29;20036;-60
2021/09/18 10:09:16;;;;;;;22.05;12.98;;;;;;;-149.78;71.29;50078.34;4853039;29;20038;-60
2021/09/18 10:11:42;;;;;;;19.88;12.20;;;;;;;-149.78;73.67;50076.41;4854879;29;20040;-60
2021/09/18 10:14:11;;;;;;;21.30;11.07;;;;;;;-149.78;72.04;50019.69;4854647;29;20330;-61
2021/09/18 10:16:38;;;;;;;15.20;9.13;;;;;;;-149.78;66.79;50041.19;4856398;29;20034;-60
2021/09/18 10:19:07;;;;;;;16.55;10.00;;;;;;;-149.78;65.15;50054.88;4856342;29;20501;-60
2021/09/18 10:24:21;;;;;;;16.48;10.32;;;;;;;-149.78;64.61;50013.81;4834064;29;20109;-60
2021/09/18 10:27:21;;;;;;;17.50;10.85;;;;;;;-149.78;63.31;50033.38;4862322;29;20410;-60
2021/09/18 10:29:48;;;;;;;16.10;9.23;;;;;;;-149.78;63.26;50029.47;4808465;29;20053;-60
2021/09/18 10:32:14;;;;;;;15.45;10.60;;;;;;;-149.78;64.76;50021.63;4862186;29;20508;-60
2021/09/18 10:34:40;;;;;;;25.77;11.18;;;;;;;-149.78;64.63;50041.19;4861962;29;20040;-60
2021/09/18 10:37:06;;;;;;;20.23;11.10;;;;;;;-149.78;66.99;50017.72;4862159;29;20041;-60
2021/09/18 10:39:31;;;;;;;18.33;10.75;;;;;;;-149.78;73.13;50037.28;4862748;29;20466;-60
2021/09/18 10:42:01;;;;;;;17.48;9.90;;;;;;;-149.78;69.16;50070.53;4869532;29;20064;-60
2021/09/18 10:44:51;;;;;;;21.15;10.90;;;;;;;-149.78;71.03;50064.66;4867416;29;20093;-60
2021/09/18 10:47:50;;;;;;;16.92;9.23;;;;;;;-149.78;74.43;50068.56;4862402;29;20036;-61
2021/09/18 10:50:22;;;;;;;17.02;9.60;;;;;;;-149.78;76.77;50088.13;4817229;29;20444;-60
2021/09/18 10:53:06;;;;;;;17.05;9.00;;;;;;;-149.78;85.40;50095.94;4860622;29;20420;-60
2021/09/18 10:56:02;;;;;;;16.60;9.50;;;;;;;-149.78;79.40;50099.88;4860984;29;20037;-60
2021/09/18 10:58:28;;;;;;;18.48;8.48;;;;;;;-149.78;79.80;50080.31;4861678;29;20446;-60
2021/09/18 11:01:00;;;;;;;18.05;9.02;;;;;;;-149.78;80.06;50099.88;4860907;29;20128;-60
2021/09/18 11:03:42;;;;;;;;;;;;;;;-149.78;81.48;50095.94;4860457;29;20045;-60
2021/09/18 11:06:09;;;;;;;15.02;8.75;;;;;;;-149.78;84.47;50099.88;4845277;29;20259;-60